Corinne, UT

12:54 PM MDT on August 28, 2016 (GMT -0600)
MesoWest | | Change Station

Elev 4211 ft 41.30 °N, 112.27 °W | Updated 54 minutes ago

Clear
Clear
80 °F
Feels Like 79 °F
N
1
Wind Variable Wind from West
Gusts 4.0 mph

Today
High -- | Low -- °F
--% Chance of Precip.
Yesterday
High -- | Low -- °F
Precip. -- in
Pressure 30.02 in
Visibility 10.0 miles
Clouds Clear
Heat Index 79 °F
Dew Point 46 °F
Humidity 30%
Rainfall in
Snow Depth Not available.
6:52 AM 8:08 PM
Waning Crescent, 14% visible
METAR KOGD 281753Z 22005KT 10SM CLR 27/05 A3018 RMK AO2 SLP164 T02720050 10272 20144 50008
Pressure 30.02 in
Visibility 10.0 miles
Clouds Clear
Heat Index 79 °F
Dew Point 46 °F
Humidity 30%
Rainfall in
Snow Depth Not available.
6:52 AM 8:08 PM
Waning Crescent, 14% visible
METAR KOGD 281753Z 22005KT 10SM CLR 27/05 A3018 RMK AO2 SLP164 T02720050 10272 20144 50008

10-Day Weather Forecast

Almanac

Astronomy

Aug. 28, 2016 Rise Set
Actual Time
Civil Twilight
Nautical Twilight
Astronomical Twilight
Moon
Length of Visible Light
Length of Day
Tomorrow will be .
, % of the Moon is Illuminated

Today's Extremes

State Highs State Lows

Community

WunderPhotos

Upload Photos

1,935,647 photos uploaded!

WunderBlog® & News

Nearby

Air Quality

  Air Quality AQ Index Pollutant
Not available.

Snow Depth

Station Depth Elevation

Earthquake Activity

City Distance Mag. Time & Date
Minimum magnitude displayed is 2.5.

Coastal Water Temperatures

Place Temperature

Stations

Nearby Weather Stations

Station Location Temp. Windchill Dew Point Humidity Wind Precip. Elev Updated Type
                   

Watches & Warnings

There are currently no watches in effect.